sensor_id;sensor_type;location;lat;lon;timestamp;pressure;altitude;pressure_sealevel;temperature;humidity
46394;BME280;32099;53.588;10.176;2023-02-22T00:00:23;101320.81;;;8.76;87.36
46394;BME280;32099;53.588;10.176;2023-02-22T00:03:00;101323.41;;;8.78;86.99
46394;BME280;32099;53.588;10.176;2023-02-22T00:05:26;101328.97;;;8.76;87.34
46394;BME280;32099;53.588;10.176;2023-02-22T00:07:53;101321.84;;;8.75;87.24
46394;BME280;32099;53.588;10.176;2023-02-22T00:10:22;101316.03;;;8.70;87.91
46394;BME280;32099;53.588;10.176;2023-02-22T00:12:49;101314.94;;;8.63;87.88
46394;BME280;32099;53.588;10.176;2023-02-22T00:15:17;101316.50;;;8.66;87.87
46394;BME280;32099;53.588;10.176;2023-02-22T00:17:44;101316.41;;;8.75;87.31
46394;BME280;32099;53.588;10.176;2023-02-22T00:20:11;101311.34;;;8.80;86.95
46394;BME280;32099;53.588;10.176;2023-02-22T00:22:41;101310.19;;;8.83;86.65
46394;BME280;32099;53.588;10.176;2023-02-22T00:25:10;101309.03;;;8.86;86.85
46394;BME280;32099;53.588;10.176;2023-02-22T00:27:36;101302.00;;;8.83;86.67
46394;BME280;32099;53.588;10.176;2023-02-22T00:30:03;101303.59;;;8.86;86.85
46394;BME280;32099;53.588;10.176;2023-02-22T00:32:29;101295.56;;;8.84;86.77
46394;BME280;32099;53.588;10.176;2023-02-22T00:34:54;101300.00;;;8.85;86.69
46394;BME280;32099;53.588;10.176;2023-02-22T00:37:20;101302.19;;;8.82;87.08
46394;BME280;32099;53.588;10.176;2023-02-22T00:39:46;101296.75;;;8.82;86.96
46394;BME280;32099;53.588;10.176;2023-02-22T00:42:12;101305.75;;;8.82;87.02
46394;BME280;32099;53.588;10.176;2023-02-22T00:44:38;101292.84;;;8.84;86.68
46394;BME280;32099;53.588;10.176;2023-02-22T00:47:03;101300.47;;;8.80;86.90
46394;BME280;32099;53.588;10.176;2023-02-22T00:49:28;101302.56;;;8.69;87.83
46394;BME280;32099;53.588;10.176;2023-02-22T00:51:54;101304.38;;;8.60;88.38
46394;BME280;32099;53.588;10.176;2023-02-22T00:54:19;101314.25;;;8.61;88.36
46394;BME280;32099;53.588;10.176;2023-02-22T00:56:45;101308.13;;;8.59;88.50
46394;BME280;32099;53.588;10.176;2023-02-22T00:59:10;101296.75;;;8.63;87.97
46394;BME280;32099;53.588;10.176;2023-02-22T01:01:36;101300.31;;;8.64;88.06
46394;BME280;32099;53.588;10.176;2023-02-22T01:04:01;101301.19;;;8.64;87.99
46394;BME280;32099;53.588;10.176;2023-02-22T01:06:26;101299.72;;;8.70;87.54
46394;BME280;32099;53.588;10.176;2023-02-22T01:08:53;101300.78;;;8.77;87.50
46394;BME280;32099;53.588;10.176;2023-02-22T01:11:18;101295.03;;;8.80;87.31
46394;BME280;32099;53.588;10.176;2023-02-22T01:13:44;101293.63;;;8.76;87.84
46394;BME280;32099;53.588;10.176;2023-02-22T01:16:09;101298.38;;;8.74;87.72
46394;BME280;32099;53.588;10.176;2023-02-22T01:18:35;101299.06;;;8.76;87.66
46394;BME280;32099;53.588;10.176;2023-02-22T01:21:01;101298.06;;;8.77;87.51
46394;BME280;32099;53.588;10.176;2023-02-22T01:23:28;101297.34;;;8.75;87.63
46394;BME280;32099;53.588;10.176;2023-02-22T01:25:53;101296.00;;;8.71;87.67
46394;BME280;32099;53.588;10.176;2023-02-22T01:28:18;101291.25;;;8.73;87.62
46394;BME280;32099;53.588;10.176;2023-02-22T01:30:43;101294.81;;;8.74;87.44
46394;BME280;32099;53.588;10.176;2023-02-22T01:33:09;101291.91;;;8.75;87.72
46394;BME280;32099;53.588;10.176;2023-02-22T01:35:37;101302.13;;;8.73;88.06
46394;BME280;32099;53.588;10.176;2023-02-22T01:38:04;101302.13;;;8.73;88.20
46394;BME280;32099;53.588;10.176;2023-02-22T01:40:31;101294.81;;;8.74;87.94
46394;BME280;32099;53.588;10.176;2023-02-22T01:42:59;101285.16;;;8.79;87.51
46394;BME280;32099;53.588;10.176;2023-02-22T01:48:03;101285.16;;;8.79;87.56
46394;BME280;32099;53.588;10.176;2023-02-22T01:50:33;101283.75;;;8.75;88.15
46394;BME280;32099;53.588;10.176;2023-02-22T01:53:01;101286.13;;;8.70;88.45
46394;BME280;32099;53.588;10.176;2023-02-22T01:55:28;101276.41;;;8.68;88.43
46394;BME280;32099;53.588;10.176;2023-02-22T01:57:55;101277.97;;;8.70;88.34
46394;BME280;32099;53.588;10.176;2023-02-22T02:00:21;101271.34;;;8.73;88.51
46394;BME280;32099;53.588;10.176;2023-02-22T02:02:53;101273.22;;;8.72;88.14
46394;BME280;32099;53.588;10.176;2023-02-22T02:05:24;101274.59;;;8.76;87.97
46394;BME280;32099;53.588;10.176;2023-02-22T02:07:51;101272.22;;;8.73;88.10
46394;BME280;32099;53.588;10.176;2023-02-22T02:10:17;101271.81;;;8.68;88.04
46394;BME280;32099;53.588;10.176;2023-02-22T02:12:45;101264.97;;;8.64;88.69
46394;BME280;32099;53.588;10.176;2023-02-22T02:15:21;101264.84;;;8.66;88.84
46394;BME280;32099;53.588;10.176;2023-02-22T02:17:47;101268.09;;;8.69;88.73
46394;BME280;32099;53.588;10.176;2023-02-22T02:22:47;101264.19;;;8.72;88.44
46394;BME280;32099;53.588;10.176;2023-02-22T02:31:04;101256.78;;;8.82;87.98
46394;BME280;32099;53.588;10.176;2023-02-22T02:38:58;101260.38;;;8.83;87.86
46394;BME280;32099;53.588;10.176;2023-02-22T02:41:35;101251.03;;;8.85;87.86
46394;BME280;32099;53.588;10.176;2023-02-22T02:44:10;101250.34;;;8.83;88.04
46394;BME280;32099;53.588;10.176;2023-02-22T02:49:20;101251.47;;;8.72;87.88
46394;BME280;32099;53.588;10.176;2023-02-22T02:51:51;101249.13;;;8.77;87.77
46394;BME280;32099;53.588;10.176;2023-02-22T02:54:19;101234.81;;;8.75;88.26
46394;BME280;32099;53.588;10.176;2023-02-22T02:56:46;101236.31;;;8.70;88.53
46394;BME280;32099;53.588;10.176;2023-02-22T02:59:31;101237.31;;;8.69;88.19
46394;BME280;32099;53.588;10.176;2023-02-22T03:13:13;101220.38;;;8.75;88.30
46394;BME280;32099;53.588;10.176;2023-02-22T03:18:19;101217.97;;;8.72;88.42
46394;BME280;32099;53.588;10.176;2023-02-22T03:20:58;101213.41;;;8.72;88.36
46394;BME280;32099;53.588;10.176;2023-02-22T03:23:42;101221.91;;;8.77;88.27
46394;BME280;32099;53.588;10.176;2023-02-22T03:26:23;101212.94;;;8.77;87.81
46394;BME280;32099;53.588;10.176;2023-02-22T03:28:52;101212.94;;;8.77;87.78
46394;BME280;32099;53.588;10.176;2023-02-22T03:31:24;101208.00;;;8.80;87.88
46394;BME280;32099;53.588;10.176;2023-02-22T03:33:57;101207.03;;;8.90;87.60
46394;BME280;32099;53.588;10.176;2023-02-22T03:36:28;101207.56;;;8.93;86.84
46394;BME280;32099;53.588;10.176;2023-02-22T03:38:58;101205.03;;;8.92;87.02
46394;BME280;32099;53.588;10.176;2023-02-22T03:41:28;101201.28;;;8.93;86.90
46394;BME280;32099;53.588;10.176;2023-02-22T03:44:01;101206.41;;;8.96;86.63
46394;BME280;32099;53.588;10.176;2023-02-22T03:46:30;101210.50;;;9.00;86.79
46394;BME280;32099;53.588;10.176;2023-02-22T03:49:10;101210.66;;;8.99;86.65
46394;BME280;32099;53.588;10.176;2023-02-22T03:51:41;101204.19;;;8.91;86.79
46394;BME280;32099;53.588;10.176;2023-02-22T03:54:07;101208.78;;;8.99;86.83
46394;BME280;32099;53.588;10.176;2023-02-22T03:56:41;101214.72;;;8.94;86.81
46394;BME280;32099;53.588;10.176;2023-02-22T03:59:13;101208.06;;;8.89;87.52
46394;BME280;32099;53.588;10.176;2023-02-22T04:01:39;101215.38;;;8.88;87.27
46394;BME280;32099;53.588;10.176;2023-02-22T04:04:04;101211.25;;;8.84;87.56
46394;BME280;32099;53.588;10.176;2023-02-22T04:06:30;101212.28;;;8.83;87.60
46394;BME280;32099;53.588;10.176;2023-02-22T04:08:55;101210.25;;;8.85;87.44
46394;BME280;32099;53.588;10.176;2023-02-22T04:11:20;101210.94;;;8.87;87.60
46394;BME280;32099;53.588;10.176;2023-02-22T04:13:46;101210.63;;;8.90;87.38
46394;BME280;32099;53.588;10.176;2023-02-22T04:16:11;101215.72;;;8.93;87.17
46394;BME280;32099;53.588;10.176;2023-02-22T04:18:37;101210.66;;;8.99;87.13
46394;BME280;32099;53.588;10.176;2023-02-22T04:21:02;101216.94;;;8.99;86.80
46394;BME280;32099;53.588;10.176;2023-02-22T04:23:28;101215.41;;;8.97;87.01
46394;BME280;32099;53.588;10.176;2023-02-22T04:25:53;101220.34;;;8.93;87.08
46394;BME280;32099;53.588;10.176;2023-02-22T04:28:19;101216.22;;;8.89;87.47
46394;BME280;32099;53.588;10.176;2023-02-22T04:30:44;101213.34;;;8.90;87.16
46394;BME280;32099;53.588;10.176;2023-02-22T04:33:10;101215.72;;;8.93;87.40
46394;BME280;32099;53.588;10.176;2023-02-22T04:35:35;101221.03;;;8.95;87.07
46394;BME280;32099;53.588;10.176;2023-02-22T04:38:01;101217.59;;;8.93;86.83
46394;BME280;32099;53.588;10.176;2023-02-22T04:40:28;101210.78;;;8.89;87.27
46394;BME280;32099;53.588;10.176;2023-02-22T04:42:54;101215.00;;;8.83;87.78
46394;BME280;32099;53.588;10.176;2023-02-22T04:45:19;101216.34;;;8.79;87.93
46394;BME280;32099;53.588;10.176;2023-02-22T04:47:44;101213.94;;;8.76;88.23
46394;BME280;32099;53.588;10.176;2023-02-22T04:50:10;101208.50;;;8.76;88.10
46394;BME280;32099;53.588;10.176;2023-02-22T04:52:36;101218.03;;;8.80;88.28
46394;BME280;32099;53.588;10.176;2023-02-22T04:55:01;101210.91;;;8.79;88.08
46394;BME280;32099;53.588;10.176;2023-02-22T04:57:28;101203.75;;;8.78;87.96
46394;BME280;32099;53.588;10.176;2023-02-22T04:59:54;101200.88;;;8.79;87.99
46394;BME280;32099;53.588;10.176;2023-02-22T05:02:19;101203.06;;;8.76;88.21
46394;BME280;32099;53.588;10.176;2023-02-22T05:04:45;101201.53;;;8.73;88.99
46394;BME280;32099;53.588;10.176;2023-02-22T05:07:10;101209.81;;;8.72;88.65
46394;BME280;32099;53.588;10.176;2023-02-22T05:09:36;101197.44;;;8.77;88.64
46394;BME280;32099;53.588;10.176;2023-02-22T05:12:01;101199.16;;;8.78;88.61
46394;BME280;32099;53.588;10.176;2023-02-22T05:14:28;101201.19;;;8.76;88.79
46394;BME280;32099;53.588;10.176;2023-02-22T05:16:56;101197.41;;;8.69;88.72
46394;BME280;32099;53.588;10.176;2023-02-22T05:19:22;101203.53;;;8.71;88.65
46394;BME280;32099;53.588;10.176;2023-02-22T05:21:48;101202.66;;;8.71;88.74
46394;BME280;32099;53.588;10.176;2023-02-22T05:24:13;101197.22;;;8.71;89.10
46394;BME280;32099;53.588;10.176;2023-02-22T05:26:38;101198.09;;;8.71;88.74
46394;BME280;32099;53.588;10.176;2023-02-22T05:29:04;101198.72;;;8.65;89.09
46394;BME280;32099;53.588;10.176;2023-02-22T05:31:29;101190.03;;;8.61;89.18
46394;BME280;32099;53.588;10.176;2023-02-22T05:33:55;101199.91;;;8.62;89.66
46394;BME280;32099;53.588;10.176;2023-02-22T05:36:20;101197.34;;;8.61;90.04
46394;BME280;32099;53.588;10.176;2023-02-22T05:38:45;101202.78;;;8.61;89.65
46394;BME280;32099;53.588;10.176;2023-02-22T05:41:11;101205.50;;;8.61;89.59
46394;BME280;32099;53.588;10.176;2023-02-22T05:43:37;101202.09;;;8.59;89.75
46394;BME280;32099;53.588;10.176;2023-02-22T05:46:03;101196.44;;;8.52;90.39
46394;BME280;32099;53.588;10.176;2023-02-22T05:48:29;101195.56;;;8.52;90.77
46394;BME280;32099;53.588;10.176;2023-02-22T05:50:55;101197.13;;;8.54;91.04
46394;BME280;32099;53.588;10.176;2023-02-22T05:53:21;101197.13;;;8.54;90.40
46394;BME280;32099;53.588;10.176;2023-02-22T05:55:47;101193.41;;;8.55;90.55
46394;BME280;32099;53.588;10.176;2023-02-22T05:58:13;101186.97;;;8.56;90.31
46394;BME280;32099;53.588;10.176;2023-02-22T06:00:39;101191.91;;;8.61;90.09
46394;BME280;32099;53.588;10.176;2023-02-22T06:03:05;101191.09;;;8.69;90.24
46394;BME280;32099;53.588;10.176;2023-02-22T06:05:32;101187.94;;;8.73;89.58
46394;BME280;32099;53.588;10.176;2023-02-22T06:07:57;101193.50;;;8.72;89.57
46394;BME280;32099;53.588;10.176;2023-02-22T06:10:22;101192.13;;;8.68;89.57
46394;BME280;32099;53.588;10.176;2023-02-22T06:12:48;101191.44;;;8.66;90.21
46394;BME280;32099;53.588;10.176;2023-02-22T06:15:14;101185.31;;;8.63;90.36
46394;BME280;32099;53.588;10.176;2023-02-22T06:17:41;101188.19;;;8.62;90.30
46394;BME280;32099;53.588;10.176;2023-02-22T06:20:10;101189.19;;;8.61;90.42
46394;BME280;32099;53.588;10.176;2023-02-22T06:22:38;101195.66;;;8.60;90.68
46394;BME280;32099;53.588;10.176;2023-02-22T06:25:05;101197.34;;;8.61;90.98
46394;BME280;32099;53.588;10.176;2023-02-22T06:27:32;101192.94;;;8.60;91.16
46394;BME280;32099;53.588;10.176;2023-02-22T06:29:58;101195.66;;;8.60;90.66
46394;BME280;32099;53.588;10.176;2023-02-22T06:32:24;101194.63;;;8.61;90.78
46394;BME280;32099;53.588;10.176;2023-02-22T06:34:49;101200.56;;;8.56;90.86
46394;BME280;32099;53.588;10.176;2023-02-22T06:37:15;101197.66;;;8.58;90.93
46394;BME280;32099;53.588;10.176;2023-02-22T06:39:40;101195.13;;;8.56;91.83
46394;BME280;32099;53.588;10.176;2023-02-22T06:42:05;101193.41;;;8.55;92.01
46394;BME280;32099;53.588;10.176;2023-02-22T06:44:30;101192.72;;;8.53;91.65
46394;BME280;32099;53.588;10.176;2023-02-22T06:46:56;101200.00;;;8.53;92.28
46394;BME280;32099;53.588;10.176;2023-02-22T06:49:23;101192.72;;;8.53;91.91
46394;BME280;32099;53.588;10.176;2023-02-22T06:51:48;101197.66;;;8.58;91.54
46394;BME280;32099;53.588;10.176;2023-02-22T06:54:14;101196.47;;;8.60;91.36
46394;BME280;32099;53.588;10.176;2023-02-22T06:56:39;101194.78;;;8.59;91.80
46394;BME280;32099;53.588;10.176;2023-02-22T06:59:04;101199.19;;;8.60;91.80
46394;BME280;32099;53.588;10.176;2023-02-22T07:01:30;101199.59;;;8.66;91.16
46394;BME280;32099;53.588;10.176;2023-02-22T07:03:55;101196.53;;;8.69;91.71
46394;BME280;32099;53.588;10.176;2023-02-22T07:06:21;101198.91;;;8.63;91.54
46394;BME280;32099;53.588;10.176;2023-02-22T07:08:46;101205.88;;;8.66;91.28
46394;BME280;32099;53.588;10.176;2023-02-22T07:11:12;101205.72;;;8.68;91.48
46394;BME280;32099;53.588;10.176;2023-02-22T07:13:37;101206.25;;;8.71;91.19
46394;BME280;32099;53.588;10.176;2023-02-22T07:16:03;101213.41;;;8.72;91.58
46394;BME280;32099;53.588;10.176;2023-02-22T07:18:29;101208.50;;;8.76;91.35
46394;BME280;32099;53.588;10.176;2023-02-22T07:20:54;101208.31;;;8.77;91.42
46394;BME280;32099;53.588;10.176;2023-02-22T07:23:20;101206.31;;;8.79;91.06
46394;BME280;32099;53.588;10.176;2023-02-22T07:25:45;101203.28;;;8.83;91.17
46394;BME280;32099;53.588;10.176;2023-02-22T07:28:10;101203.59;;;8.79;91.03
46394;BME280;32099;53.588;10.176;2023-02-22T07:30:36;101197.75;;;8.74;91.46
46394;BME280;32099;53.588;10.176;2023-02-22T07:33:02;101208.09;;;8.71;91.70
46394;BME280;32099;53.588;10.176;2023-02-22T07:35:30;101197.22;;;8.71;91.96
46394;BME280;32099;53.588;10.176;2023-02-22T07:38:02;101200.28;;;8.68;92.34
46394;BME280;32099;53.588;10.176;2023-02-22T07:40:30;101195.88;;;8.67;92.63
46394;BME280;32099;53.588;10.176;2023-02-22T07:45:24;101195.03;;;8.74;91.82
46394;BME280;32099;53.588;10.176;2023-02-22T07:47:51;101190.00;;;8.79;91.54
46394;BME280;32099;53.588;10.176;2023-02-22T07:50:18;101196.44;;;8.78;91.92
46394;BME280;32099;53.588;10.176;2023-02-22T07:52:45;101183.50;;;8.72;92.88
46394;BME280;32099;53.588;10.176;2023-02-22T07:55:15;101198.09;;;8.71;92.16
46394;BME280;32099;53.588;10.176;2023-02-22T07:57:42;101196.44;;;8.78;92.41
46394;BME280;32099;53.588;10.176;2023-02-22T08:00:10;101191.88;;;8.79;92.50
46394;BME280;32099;53.588;10.176;2023-02-22T08:02:38;101184.25;;;8.83;92.40
46394;BME280;32099;53.588;10.176;2023-02-22T08:05:05;101191.75;;;8.89;92.05
46394;BME280;32099;53.588;10.176;2023-02-22T08:07:30;101183.97;;;8.94;91.26
46394;BME280;32099;53.588;10.176;2023-02-22T08:09:56;101179.56;;;9.01;91.72
46394;BME280;32099;53.588;10.176;2023-02-22T08:12:21;101179.06;;;9.06;91.52
46394;BME280;32099;53.588;10.176;2023-02-22T08:14:46;101183.50;;;9.07;92.12
46394;BME280;32099;53.588;10.176;2023-02-22T08:17:11;101177.22;;;9.06;92.10
46394;BME280;32099;53.588;10.176;2023-02-22T08:19:37;101175.03;;;9.10;91.88
46394;BME280;32099;53.588;10.176;2023-02-22T08:22:03;101178.09;;;9.15;91.77
46394;BME280;32099;53.588;10.176;2023-02-22T08:24:28;101168.78;;;9.18;91.31
46394;BME280;32099;53.588;10.176;2023-02-22T08:26:53;101179.66;;;9.18;91.45
46394;BME280;32099;53.588;10.176;2023-02-22T08:29:19;101171.50;;;9.18;92.42
46394;BME280;32099;53.588;10.176;2023-02-22T08:31:48;101175.06;;;9.18;91.73
46394;BME280;32099;53.588;10.176;2023-02-22T08:34:14;101169.63;;;9.18;92.53
46394;BME280;32099;53.588;10.176;2023-02-22T08:36:40;101170.47;;;9.19;92.29
46394;BME280;32099;53.588;10.176;2023-02-22T08:39:06;101171.69;;;9.24;92.00
46394;BME280;32099;53.588;10.176;2023-02-22T08:41:32;101163.88;;;9.30;91.53
46394;BME280;32099;53.588;10.176;2023-02-22T08:43:57;101168.31;;;9.39;92.04
46394;BME280;32099;53.588;10.176;2023-02-22T08:46:25;101160.34;;;9.37;91.79
46394;BME280;32099;53.588;10.176;2023-02-22T08:48:50;101168.00;;;9.42;92.07
46394;BME280;32099;53.588;10.176;2023-02-22T08:51:16;101162.22;;;9.45;91.88
46394;BME280;32099;53.588;10.176;2023-02-22T08:53:42;101154.75;;;9.47;91.82
46394;BME280;32099;53.588;10.176;2023-02-22T08:56:08;101160.41;;;9.54;91.59
46394;BME280;32099;53.588;10.176;2023-02-22T08:58:33;101162.44;;;9.60;91.41
46394;BME280;32099;53.588;10.176;2023-02-22T09:00:59;101154.81;;;9.72;91.38
46394;BME280;32099;53.588;10.176;2023-02-22T09:03:24;101158.75;;;9.78;90.99
46394;BME280;32099;53.588;10.176;2023-02-22T09:05:49;101159.75;;;9.77;90.52
46394;BME280;32099;53.588;10.176;2023-02-22T09:08:15;101162.50;;;9.77;90.59
46394;BME280;32099;53.588;10.176;2023-02-22T09:10:40;101165.34;;;9.67;90.72
46394;BME280;32099;53.588;10.176;2023-02-22T09:13:06;101158.88;;;9.60;91.21
46394;BME280;32099;53.588;10.176;2023-02-22T09:15:32;101159.53;;;9.62;90.84
46394;BME280;32099;53.588;10.176;2023-02-22T09:18:00;101157.19;;;9.67;91.56
46394;BME280;32099;53.588;10.176;2023-02-22T09:20:26;101157.00;;;9.68;91.31
46394;BME280;32099;53.588;10.176;2023-02-22T09:22:52;101152.94;;;9.72;91.40
46394;BME280;32099;53.588;10.176;2023-02-22T09:25:18;101148.50;;;9.71;90.96
46394;BME280;32099;53.588;10.176;2023-02-22T09:27:48;101153.94;;;9.71;91.03
46394;BME280;32099;53.588;10.176;2023-02-22T09:30:16;101152.94;;;9.72;90.69
46394;BME280;32099;53.588;10.176;2023-02-22T09:32:47;101163.63;;;9.66;91.08
46394;BME280;32099;53.588;10.176;2023-02-22T09:35:13;101158.34;;;9.56;91.25
46394;BME280;32099;53.588;10.176;2023-02-22T09:37:38;101155.63;;;9.56;91.43
46394;BME280;32099;53.588;10.176;2023-02-22T09:40:03;101157.81;;;9.52;90.76
46394;BME280;32099;53.588;10.176;2023-02-22T09:42:34;101155.47;;;9.57;90.60
46394;BME280;32099;53.588;10.176;2023-02-22T09:45:17;101158.00;;;9.59;90.46
46394;BME280;32099;53.588;10.176;2023-02-22T09:47:48;101157.16;;;9.59;91.27
46394;BME280;32099;53.588;10.176;2023-02-22T09:50:23;101156.81;;;9.62;91.09
46394;BME280;32099;53.588;10.176;2023-02-22T09:52:54;101156.66;;;9.63;91.16
46394;BME280;32099;53.588;10.176;2023-02-22T09:55:30;101159.91;;;9.67;90.31
46394;BME280;32099;53.588;10.176;2023-02-22T09:58:09;101147.13;;;9.67;89.92
46394;BME280;32099;53.588;10.176;2023-02-22T10:00:46;101155.28;;;9.67;90.17
46394;BME280;32099;53.588;10.176;2023-02-22T10:03:29;101158.72;;;9.69;90.02
46394;BME280;32099;53.588;10.176;2023-02-22T10:06:03;101148.69;;;9.70;89.90
46394;BME280;32099;53.588;10.176;2023-02-22T10:08:35;101147.84;;;9.78;90.01
46394;BME280;32099;53.588;10.176;2023-02-22T10:14:19;101147.34;;;9.82;89.52
46394;BME280;32099;53.588;10.176;2023-02-22T10:17:13;101143.25;;;9.86;89.55
46394;BME280;32099;53.588;10.176;2023-02-22T10:25:13;101130.84;;;10.00;88.02
46394;BME280;32099;53.588;10.176;2023-02-22T10:27:44;101136.44;;;9.99;88.17
46394;BME280;32099;53.588;10.176;2023-02-22T10:30:21;101137.13;;;10.01;88.84
46394;BME280;32099;53.588;10.176;2023-02-22T10:35:43;101136.09;;;10.10;88.03
46394;BME280;32099;53.588;10.176;2023-02-22T10:38:19;101134.06;;;10.12;87.72
46394;BME280;32099;53.588;10.176;2023-02-22T10:40:55;101133.88;;;10.14;87.64
46394;BME280;32099;53.588;10.176;2023-02-22T10:43:23;101127.59;;;10.13;87.15
46394;BME280;32099;53.588;10.176;2023-02-22T10:45:50;101124.00;;;10.13;87.92
46394;BME280;32099;53.588;10.176;2023-02-22T10:48:20;101118.91;;;10.18;87.00
46394;BME280;32099;53.588;10.176;2023-02-22T10:50:48;101118.19;;;10.24;85.83
46394;BME280;32099;53.588;10.176;2023-02-22T10:53:17;101122.47;;;10.35;86.11
46394;BME280;32099;53.588;10.176;2023-02-22T11:01:24;101114.09;;;10.61;86.45
46394;BME280;32099;53.588;10.176;2023-02-22T11:04:10;101106.84;;;10.85;86.09
46394;BME280;32099;53.588;10.176;2023-02-22T11:06:40;101102.47;;;11.16;84.48
46394;BME280;32099;53.588;10.176;2023-02-22T11:09:09;101099.97;;;11.37;82.49
46394;BME280;32099;53.588;10.176;2023-02-22T11:11:44;101084.69;;;11.51;81.87
46394;BME280;32099;53.588;10.176;2023-02-22T11:14:13;101087.66;;;11.65;81.08
46394;BME280;32099;53.588;10.176;2023-02-22T11:16:53;101081.59;;;11.78;80.97
46394;BME280;32099;53.588;10.176;2023-02-22T11:19:27;101075.75;;;11.81;78.86
46394;BME280;32099;53.588;10.176;2023-02-22T11:22:17;101074.56;;;11.83;79.87
46394;BME280;32099;53.588;10.176;2023-02-22T11:24:46;101064.09;;;11.87;78.85
46394;BME280;32099;53.588;10.176;2023-02-22T11:27:23;101072.97;;;11.89;80.87
46394;BME280;32099;53.588;10.176;2023-02-22T11:29:52;101056.50;;;11.97;79.48
46394;BME280;32099;53.588;10.176;2023-02-22T11:32:30;101045.03;;;12.02;79.61
46394;BME280;32099;53.588;10.176;2023-02-22T11:34:55;101045.72;;;12.04;78.26
46394;BME280;32099;53.588;10.176;2023-02-22T11:37:42;101044.69;;;12.05;78.43
46394;BME280;32099;53.588;10.176;2023-02-22T11:40:18;101039.22;;;12.05;77.06
46394;BME280;32099;53.588;10.176;2023-02-22T11:42:48;101040.81;;;11.91;78.31
46394;BME280;32099;53.588;10.176;2023-02-22T11:45:33;101033.50;;;11.92;79.93
46394;BME280;32099;53.588;10.176;2023-02-22T11:47:59;101030.34;;;12.03;78.43
46394;BME280;32099;53.588;10.176;2023-02-22T11:50:30;101028.94;;;12.07;77.19
46394;BME280;32099;53.588;10.176;2023-02-22T11:56:08;101021.16;;;11.96;77.34
46394;BME280;32099;53.588;10.176;2023-02-22T11:58:47;101010.97;;;11.89;76.70
46394;BME280;32099;53.588;10.176;2023-02-22T12:01:25;101004.28;;;11.92;78.51
46394;BME280;32099;53.588;10.176;2023-02-22T12:10:01;101005.00;;;12.39;76.70
46394;BME280;32099;53.588;10.176;2023-02-22T12:15:13;101010.00;;;12.50;77.13
46394;BME280;32099;53.588;10.176;2023-02-22T12:18:03;101004.53;;;12.50;76.67
46394;BME280;32099;53.588;10.176;2023-02-22T12:20:35;100994.25;;;12.53;77.37
46394;BME280;32099;53.588;10.176;2023-02-22T12:28:43;100992.31;;;12.83;76.60
46394;BME280;32099;53.588;10.176;2023-02-22T12:31:20;100999.38;;;12.77;74.69
46394;BME280;32099;53.588;10.176;2023-02-22T12:33:58;100993.38;;;12.67;74.89
46394;BME280;32099;53.588;10.176;2023-02-22T12:36:37;100986.88;;;12.68;77.11
46394;BME280;32099;53.588;10.176;2023-02-22T12:39:19;100991.38;;;12.76;75.27
46394;BME280;32099;53.588;10.176;2023-02-22T12:41:55;100978.63;;;12.83;76.47
46394;BME280;32099;53.588;10.176;2023-02-22T12:44:34;100990.06;;;12.87;74.66
46394;BME280;32099;53.588;10.176;2023-02-22T12:47:02;100980.91;;;12.79;74.62
46394;BME280;32099;53.588;10.176;2023-02-22T12:49:46;100976.88;;;12.75;75.07
46394;BME280;32099;53.588;10.176;2023-02-22T12:52:23;100969.66;;;12.89;75.70
46394;BME280;32099;53.588;10.176;2023-02-22T12:57:53;100971.59;;;12.95;74.27
46394;BME280;32099;53.588;10.176;2023-02-22T13:00:27;100962.69;;;12.87;74.71
46394;BME280;32099;53.588;10.176;2023-02-22T13:03:22;100965.88;;;12.90;76.73
46394;BME280;32099;53.588;10.176;2023-02-22T13:11:40;100960.94;;;13.01;75.11
46394;BME280;32099;53.588;10.176;2023-02-22T13:22:54;100958.75;;;12.74;73.18
46394;BME280;32099;53.588;10.176;2023-02-22T13:25:36;100959.50;;;12.68;74.92
46394;BME280;32099;53.588;10.176;2023-02-22T13:28:12;100953.56;;;12.64;75.21
46394;BME280;32099;53.588;10.176;2023-02-22T13:30:47;100956.09;;;12.66;75.87
46394;BME280;32099;53.588;10.176;2023-02-22T13:33:40;100957.81;;;12.67;75.79
46394;BME280;32099;53.588;10.176;2023-02-22T13:36:21;100957.19;;;12.65;77.03
46394;BME280;32099;53.588;10.176;2023-02-22T13:38:55;100947.72;;;12.68;75.45
46394;BME280;32099;53.588;10.176;2023-02-22T13:47:32;100941.81;;;12.49;74.37
46394;BME280;32099;53.588;10.176;2023-02-22T13:52:30;100946.53;;;12.55;76.23
46394;BME280;32099;53.588;10.176;2023-02-22T13:55:01;100938.97;;;12.57;75.07
46394;BME280;32099;53.588;10.176;2023-02-22T13:57:39;100936.25;;;12.57;75.54
46394;BME280;32099;53.588;10.176;2023-02-22T14:05:35;100934.66;;;12.48;77.34
46394;BME280;32099;53.588;10.176;2023-02-22T14:08:03;100937.19;;;12.49;76.21
46394;BME280;32099;53.588;10.176;2023-02-22T14:13:24;100942.66;;;12.49;76.89
46394;BME280;32099;53.588;10.176;2023-02-22T14:18:26;100939.06;;;12.49;77.09
46394;BME280;32099;53.588;10.176;2023-02-22T14:21:04;100939.56;;;12.53;77.87
46394;BME280;32099;53.588;10.176;2023-02-22T14:23:35;100927.50;;;12.47;76.70
46394;BME280;32099;53.588;10.176;2023-02-22T14:26:19;100931.19;;;12.39;76.52
46394;BME280;32099;53.588;10.176;2023-02-22T14:34:15;100937.31;;;12.26;77.93
46394;BME280;32099;53.588;10.176;2023-02-22T14:39:44;100928.44;;;12.09;78.33
46394;BME280;32099;53.588;10.176;2023-02-22T14:42:27;100929.97;;;12.12;78.46
46394;BME280;32099;53.588;10.176;2023-02-22T14:47:38;100927.03;;;12.13;78.19
46394;BME280;32099;53.588;10.176;2023-02-22T14:50:24;100913.19;;;12.15;77.81
46394;BME280;32099;53.588;10.176;2023-02-22T14:53:01;100912.34;;;12.14;79.07
46394;BME280;32099;53.588;10.176;2023-02-22T14:55:31;100915.53;;;12.18;77.85